createdAt,value
2023-01-22T00:01:28.809Z,94824.59
2023-01-22T00:06:32.373Z,94825.72
2023-01-22T00:11:34.480Z,94825.44
2023-01-22T00:16:36.543Z,94823.06
2023-01-22T00:21:38.581Z,94819.91
2023-01-22T00:26:40.675Z,94819.16
2023-01-22T00:31:43.116Z,94825.22
2023-01-22T00:36:46.182Z,94807.28
2023-01-22T00:41:50.344Z,94792.78
2023-01-22T00:46:53.090Z,94772.44
2023-01-22T00:51:55.309Z,94791.66
2023-01-22T00:56:57.414Z,94818.06
2023-01-22T01:01:59.524Z,94823.03
2023-01-22T01:07:01.703Z,94832.78
2023-01-22T01:12:03.955Z,94836.72
2023-01-22T01:17:06.099Z,94845.34
2023-01-22T01:22:08.588Z,94838.72
2023-01-22T01:27:10.604Z,94836.09
2023-01-22T01:32:12.693Z,94839.47
2023-01-22T01:37:14.964Z,94832.66
2023-01-22T01:42:30.451Z,94835.53
2023-01-22T01:47:34.859Z,94842.09
2023-01-22T01:52:37.025Z,94846.28
2023-01-22T01:57:39.173Z,94829.09
2023-01-22T02:02:41.733Z,94814.22
2023-01-22T02:07:44.111Z,94856.75
2023-01-22T02:12:50.800Z,94853.56
2023-01-22T02:17:52.879Z,94860.88
2023-01-22T02:22:56.270Z,94864.44
2023-01-22T02:27:58.680Z,94865.84
2023-01-22T02:33:00.827Z,94854.94
2023-01-22T02:38:04.717Z,94807.22
2023-01-22T02:43:08.895Z,94836.56
2023-01-22T02:48:11.372Z,94836.03
2023-01-22T02:53:13.741Z,94829.94
2023-01-22T02:58:17.431Z,94836.31
2023-01-22T03:03:20.090Z,94833.97
2023-01-22T03:08:22.604Z,94839.47
2023-01-22T03:13:44.482Z,94841.88
2023-01-22T03:19:05.165Z,94795.09
2023-01-22T03:24:07.415Z,94820.19
2023-01-22T03:29:09.653Z,94830.91
2023-01-22T03:34:12.788Z,94832.75
2023-01-22T03:39:15.309Z,94786.19
2023-01-22T03:44:18.045Z,94836.06
2023-01-22T03:49:20.483Z,94802.78
2023-01-22T03:54:26.935Z,94831.19
2023-01-22T03:59:31.774Z,94795.13
2023-01-22T04:04:34.198Z,94837.22
2023-01-22T04:09:37.544Z,94834.16
2023-01-22T04:14:40.069Z,94838.75
2023-01-22T04:19:43.361Z,94850.56
2023-01-22T04:25:04.718Z,94839.47
2023-01-22T04:30:07.927Z,94787.59
2023-01-22T04:35:10.746Z,94834.31
2023-01-22T04:40:20.879Z,94825.47
2023-01-22T04:45:24.203Z,94821.16
2023-01-22T04:50:29.822Z,94794.84
2023-01-22T04:55:32.761Z,94840.25
2023-01-22T05:00:38.789Z,94845.91
2023-01-22T05:05:41.189Z,94819.47
2023-01-22T05:10:43.353Z,94839.34
2023-01-22T05:15:51.531Z,94833.22
2023-01-22T05:20:54.030Z,94833.16
2023-01-22T05:25:58.552Z,94839.84
2023-01-22T05:31:26.762Z,94826.38
2023-01-22T05:36:36.040Z,94845.03
2023-01-22T05:41:47.938Z,94838.91
2023-01-22T05:46:50.905Z,94794.09
2023-01-22T05:52:19.605Z,94853.66
2023-01-22T05:57:22.644Z,94836.28
2023-01-22T06:02:25.140Z,94835.78
2023-01-22T06:07:30.832Z,94828.59
2023-01-22T06:12:33.904Z,94823.75
2023-01-22T06:17:36.232Z,94807.03
2023-01-22T06:22:38.642Z,94837.69
2023-01-22T06:27:41.370Z,94832.53
2023-01-22T06:32:43.487Z,94844.41
2023-01-22T06:37:47.814Z,94834.47
2023-01-22T06:42:49.909Z,94845.09
2023-01-22T06:47:52.710Z,94841.47
2023-01-22T06:52:54.926Z,94850.72
2023-01-22T06:57:57.503Z,94841.53
2023-01-22T07:02:59.527Z,94841.66
2023-01-22T07:08:02.330Z,94840.19
2023-01-22T07:13:04.593Z,94837.56
2023-01-22T07:18:06.692Z,94851.47
2023-01-22T07:23:10.058Z,94832.78
2023-01-22T07:28:15.126Z,94837.28
2023-01-22T07:33:17.521Z,94801.41
2023-01-22T07:38:19.578Z,94850.69
2023-01-22T07:43:21.667Z,94865.09
2023-01-22T07:48:24.832Z,94868.97
2023-01-22T07:53:27.406Z,94891.41
2023-01-22T07:58:29.461Z,94889.19
2023-01-22T08:03:34.097Z,94892.22
2023-01-22T08:08:36.295Z,94903.22
2023-01-22T08:13:38.582Z,94931.69
2023-01-22T08:18:40.847Z,94941.69
2023-01-22T08:23:46.172Z,94951.91
2023-01-22T08:28:49.547Z,94951.88
2023-01-22T08:33:51.489Z,94933.25
2023-01-22T08:38:53.822Z,94891.13
2023-01-22T08:43:55.864Z,94899.78
2023-01-22T08:48:58.083Z,94906.25
2023-01-22T08:54:00.116Z,94937.97
2023-01-22T08:59:06.754Z,94936.31
2023-01-22T09:04:09.923Z,94917.19
2023-01-22T09:09:13.294Z,94911.34
2023-01-22T09:14:15.540Z,94931.50
2023-01-22T09:19:17.590Z,94940.72
2023-01-22T09:24:19.722Z,94938.38
2023-01-22T09:29:21.773Z,94935.63
2023-01-22T09:34:23.779Z,94941.66
2023-01-22T09:39:26.076Z,94926.53
2023-01-22T09:44:38.954Z,94919.34
2023-01-22T09:49:58.069Z,94924.44
2023-01-22T09:55:00.262Z,94921.31
2023-01-22T10:00:02.642Z,94928.56
2023-01-22T10:05:28.104Z,94914.09
2023-01-22T10:10:30.940Z,94890.50
2023-01-22T10:15:33.562Z,94918.44
2023-01-22T10:20:35.830Z,94927.59
2023-01-22T10:25:45.846Z,94909.31
2023-01-22T10:30:49.534Z,94894.34
2023-01-22T10:35:56.387Z,94918.78
2023-01-22T10:41:01.408Z,94925.34
2023-01-22T10:46:23.811Z,94931.56
2023-01-22T10:51:32.765Z,94919.00
2023-01-22T10:56:38.751Z,94913.25
2023-01-22T11:01:43.076Z,94901.38
2023-01-22T11:06:51.851Z,94904.47
2023-01-22T11:12:02.487Z,94902.09
2023-01-22T11:17:19.424Z,94903.56
2023-01-22T11:22:26.786Z,94891.91
2023-01-22T11:27:40.435Z,94897.00
2023-01-22T11:33:03.562Z,94855.72
2023-01-22T11:38:29.969Z,94899.44
2023-01-22T11:43:55.767Z,94902.91
2023-01-22T11:49:22.898Z,94895.56
2023-01-22T11:54:45.967Z,94892.66
2023-01-22T11:59:53.921Z,94876.09
2023-01-22T12:05:14.271Z,94868.72
2023-01-22T12:10:39.493Z,94861.03
2023-01-22T12:15:51.156Z,94869.28
2023-01-22T12:21:06.714Z,94856.06
2023-01-22T12:26:23.460Z,94853.94
2023-01-22T12:31:36.529Z,94847.78
2023-01-22T12:36:39.004Z,94844.59
2023-01-22T12:42:13.368Z,94843.66
2023-01-22T12:47:22.189Z,94854.94
2023-01-22T12:52:38.725Z,94834.06
2023-01-22T12:57:42.054Z,94839.22
2023-01-22T13:02:44.148Z,94837.06
2023-01-22T13:07:47.222Z,94807.06
2023-01-22T13:12:57.908Z,94810.22
2023-01-22T13:18:07.509Z,94807.97
2023-01-22T13:23:12.397Z,94808.53
2023-01-22T13:28:18.861Z,94813.63
2023-01-22T13:33:20.988Z,94794.41
2023-01-22T13:38:28.556Z,94810.19
2023-01-22T13:43:30.853Z,94799.19
2023-01-22T13:48:33.448Z,94803.78
2023-01-22T13:53:48.974Z,94808.25
2023-01-22T13:58:52.917Z,94798.91
2023-01-22T14:04:08.404Z,94775.44
2023-01-22T14:09:10.590Z,94791.97
2023-01-22T14:14:17.270Z,94793.75
2023-01-22T14:19:19.335Z,94804.19
2023-01-22T14:24:21.902Z,94794.44
2023-01-22T14:29:24.057Z,94773.63
2023-01-22T14:34:27.180Z,94778.84
2023-01-22T14:39:33.625Z,94813.03
2023-01-22T14:44:35.858Z,94830.22
2023-01-22T14:49:39.940Z,94836.97
2023-01-22T14:54:42.074Z,94818.25
2023-01-22T14:59:44.114Z,94837.91
2023-01-22T15:04:46.389Z,94852.78
2023-01-22T15:09:48.425Z,94855.06
2023-01-22T15:14:50.452Z,94816.97
2023-01-22T15:19:52.701Z,94851.50
2023-01-22T15:24:54.834Z,94849.69
2023-01-22T15:29:57.053Z,94850.00
2023-01-22T15:34:59.083Z,94852.22
2023-01-22T15:40:01.537Z,94844.09
2023-01-22T15:45:04.549Z,94863.69
2023-01-22T15:50:07.025Z,94864.81
2023-01-22T15:55:09.730Z,94873.63
2023-01-22T16:00:12.590Z,94850.06
2023-01-22T16:05:14.717Z,94881.16
2023-01-22T16:10:16.962Z,94889.47
2023-01-22T16:15:19.257Z,94877.59
2023-01-22T16:20:22.387Z,94881.09
2023-01-22T16:25:24.454Z,94867.97
2023-01-22T16:30:26.577Z,94870.63
2023-01-22T16:35:28.702Z,94856.34
2023-01-22T16:40:31.941Z,94890.66
2023-01-22T16:45:34.914Z,94881.81
2023-01-22T16:50:37.157Z,94887.91
2023-01-22T16:55:39.459Z,94883.00
2023-01-22T17:00:41.517Z,94888.63
2023-01-22T17:05:43.452Z,94883.41
2023-01-22T17:10:45.378Z,94851.59
2023-01-22T17:15:48.819Z,94857.78
2023-01-22T17:21:01.940Z,94892.91
2023-01-22T17:26:10.195Z,94894.28
2023-01-22T17:31:16.198Z,94886.19
2023-01-22T17:36:22.809Z,94895.19
2023-01-22T17:41:25.929Z,94905.91
2023-01-22T17:46:31.957Z,94902.75
2023-01-22T17:51:34.995Z,94906.22
2023-01-22T17:56:44.640Z,94877.75
2023-01-22T18:01:47.393Z,94911.28
2023-01-22T18:06:50.153Z,94922.13
2023-01-22T18:11:52.217Z,94931.47
2023-01-22T18:16:54.674Z,94927.00
2023-01-22T18:21:56.793Z,94930.47
2023-01-22T18:26:59.110Z,94898.84
2023-01-22T18:32:01.326Z,94934.75
2023-01-22T18:37:03.379Z,94898.91
2023-01-22T18:42:05.357Z,94931.38
2023-01-22T18:47:11.274Z,94932.69
2023-01-22T18:52:13.312Z,94904.72
2023-01-22T18:57:16.398Z,94917.41
2023-01-22T19:02:21.991Z,94920.03
2023-01-22T19:07:23.986Z,94920.31
2023-01-22T19:12:26.022Z,94916.63
2023-01-22T19:17:28.061Z,94928.00
2023-01-22T19:22:32.524Z,94927.19
2023-01-22T19:27:34.569Z,94911.09
2023-01-22T19:32:38.291Z,94932.19
2023-01-22T19:37:40.605Z,94926.66
2023-01-22T19:42:48.144Z,94925.84
2023-01-22T19:47:50.503Z,94914.25
2023-01-22T19:52:52.650Z,94926.09
2023-01-22T19:57:55.690Z,94885.16
2023-01-22T20:02:58.126Z,94915.78
2023-01-22T20:08:00.293Z,94924.72
2023-01-22T20:13:02.337Z,94920.22
2023-01-22T20:18:05.146Z,94877.97
2023-01-22T20:23:07.378Z,94922.06
2023-01-22T20:28:11.006Z,94913.09
2023-01-22T20:33:13.360Z,94907.78
2023-01-22T20:38:15.961Z,94895.91
2023-01-22T20:43:19.270Z,94912.50
2023-01-22T20:48:21.707Z,94908.53
2023-01-22T20:53:25.108Z,94910.56
2023-01-22T20:58:29.242Z,94912.88
2023-01-22T21:03:32.726Z,94914.09
2023-01-22T21:08:35.635Z,94900.66
2023-01-22T21:13:38.953Z,94898.25
2023-01-22T21:18:44.512Z,94906.13
2023-01-22T21:23:48.398Z,94895.50
2023-01-22T21:29:03.116Z,94895.22
2023-01-22T21:34:08.338Z,94891.75
2023-01-22T21:39:14.726Z,94900.44
2023-01-22T21:44:37.384Z,94896.69
2023-01-22T21:49:39.425Z,94903.50
2023-01-22T21:54:41.698Z,94902.41
2023-01-22T21:59:46.167Z,94887.00
2023-01-22T22:04:51.378Z,94887.44
2023-01-22T22:09:53.422Z,94895.28
2023-01-22T22:14:55.924Z,94893.81
2023-01-22T22:19:58.275Z,94889.22
2023-01-22T22:25:00.343Z,94855.59
2023-01-22T22:30:02.446Z,94888.56
2023-01-22T22:35:04.829Z,94893.28
2023-01-22T22:40:07.359Z,94890.69
2023-01-22T22:45:10.033Z,94879.06
2023-01-22T22:50:12.171Z,94884.91
2023-01-22T22:55:14.176Z,94845.34
2023-01-22T23:00:18.208Z,94894.75
2023-01-22T23:05:20.395Z,94892.50
2023-01-22T23:10:31.577Z,94900.19
2023-01-22T23:15:34.293Z,94898.94
2023-01-22T23:20:36.685Z,94906.06
2023-01-22T23:25:38.702Z,94890.56
2023-01-22T23:30:41.008Z,94876.56
2023-01-22T23:35:43.487Z,94893.31
2023-01-22T23:40:46.213Z,94891.84
2023-01-22T23:45:48.190Z,94891.78
2023-01-22T23:50:53.600Z,94847.25
2023-01-22T23:56:00.352Z,94889.00
